sensor_id;sensor_type;location;lat;lon;timestamp;pressure;altitude;pressure_sealevel;temperature;humidity
64632;BME280;58358;50.936;0.246;2024-03-23T00:51:04;100907.00;;;3.61;100.00
64632;BME280;58358;50.936;0.246;2024-03-23T00:55:56;100914.46;;;3.45;100.00
64632;BME280;58358;50.936;0.246;2024-03-23T00:58:21;100908.80;;;2.98;100.00
64632;BME280;58358;50.936;0.246;2024-03-23T01:00:46;100906.46;;;3.52;100.00
64632;BME280;58358;50.936;0.246;2024-03-23T01:03:11;100904.44;;;3.94;100.00
64632;BME280;58358;50.936;0.246;2024-03-23T01:05:37;100901.34;;;3.50;100.00
64632;BME280;58358;50.936;0.246;2024-03-23T01:08:02;100895.14;;;5.01;100.00
64632;BME280;58358;50.936;0.246;2024-03-23T01:10:27;100895.27;;;4.35;100.00
64632;BME280;58358;50.936;0.246;2024-03-23T01:12:54;100899.61;;;4.72;100.00
64632;BME280;58358;50.936;0.246;2024-03-23T01:15:19;100902.66;;;4.59;100.00
64632;BME280;58358;50.936;0.246;2024-03-23T01:17:44;100902.00;;;4.93;100.00
64632;BME280;58358;50.936;0.246;2024-03-23T01:20:10;100896.66;;;4.85;100.00
64632;BME280;58358;50.936;0.246;2024-03-23T01:22:35;100895.75;;;4.94;100.00
64632;BME280;58358;50.936;0.246;2024-03-23T01:25:01;100894.90;;;4.42;100.00
64632;BME280;58358;50.936;0.246;2024-03-23T01:27:26;100899.67;;;4.60;100.00
64632;BME280;58358;50.936;0.246;2024-03-23T01:29:52;100901.47;;;3.31;100.00
64632;BME280;58358;50.936;0.246;2024-03-23T01:32:18;100899.57;;;4.66;100.00
64632;BME280;58358;50.936;0.246;2024-03-23T01:34:44;100908.23;;;3.82;100.00
64632;BME280;58358;50.936;0.246;2024-03-23T01:37:09;100911.64;;;3.84;100.00
64632;BME280;58358;50.936;0.246;2024-03-23T01:39:34;100909.82;;;3.90;100.00
64632;BME280;58358;50.936;0.246;2024-03-23T01:42:00;100905.17;;;2.38;100.00
64632;BME280;58358;50.936;0.246;2024-03-23T01:44:25;100904.64;;;5.03;100.00
64632;BME280;58358;50.936;0.246;2024-03-23T01:46:55;100898.37;;;4.99;100.00
64632;BME280;58358;50.936;0.246;2024-03-23T01:49:17;100897.03;;;4.85;100.00
64632;BME280;58358;50.936;0.246;2024-03-23T01:51:42;100893.28;;;5.69;100.00
64632;BME280;58358;50.936;0.246;2024-03-23T01:54:08;100885.07;;;5.76;100.00
64632;BME280;58358;50.936;0.246;2024-03-23T01:56:34;100886.81;;;4.99;100.00
64632;BME280;58358;50.936;0.246;2024-03-23T01:58:58;100890.61;;;5.38;100.00
64632;BME280;58358;50.936;0.246;2024-03-23T02:01:24;100893.64;;;6.17;100.00
64632;BME280;58358;50.936;0.246;2024-03-23T02:03:50;100893.80;;;4.95;100.00
64632;BME280;58358;50.936;0.246;2024-03-23T02:06:16;100893.85;;;6.06;100.00
64632;BME280;58358;50.936;0.246;2024-03-23T02:08:43;100897.07;;;5.30;100.00
64632;BME280;58358;50.936;0.246;2024-03-23T02:11:06;100894.21;;;5.75;100.00
64632;BME280;58358;50.936;0.246;2024-03-23T02:13:32;100899.34;;;5.74;100.00
64632;BME280;58358;50.936;0.246;2024-03-23T02:15:57;100897.49;;;5.30;100.00
64632;BME280;58358;50.936;0.246;2024-03-23T02:18:23;100897.60;;;5.98;100.00
64632;BME280;58358;50.936;0.246;2024-03-23T02:20:49;100893.87;;;4.80;100.00
64632;BME280;58358;50.936;0.246;2024-03-23T02:23:15;100896.31;;;5.12;100.00
64632;BME280;58358;50.936;0.246;2024-03-23T02:25:40;100897.77;;;5.27;100.00
64632;BME280;58358;50.936;0.246;2024-03-23T02:28:06;100896.72;;;5.27;100.00
64632;BME280;58358;50.936;0.246;2024-03-23T02:30:31;100894.88;;;6.07;100.00
64632;BME280;58358;50.936;0.246;2024-03-23T02:32:57;100890.88;;;5.02;100.00
64632;BME280;58358;50.936;0.246;2024-03-23T02:35:22;100890.67;;;3.45;100.00
64632;BME280;58358;50.936;0.246;2024-03-23T02:37:48;100885.32;;;4.10;100.00
64632;BME280;58358;50.936;0.246;2024-03-23T02:40:13;100883.80;;;4.92;100.00
64632;BME280;58358;50.936;0.246;2024-03-23T02:42:38;100880.68;;;4.50;100.00
64632;BME280;58358;50.936;0.246;2024-03-23T02:45:04;100879.42;;;5.39;100.00
64632;BME280;58358;50.936;0.246;2024-03-23T02:47:29;100879.93;;;4.72;100.00
64632;BME280;58358;50.936;0.246;2024-03-23T02:49:54;100886.63;;;3.86;100.00
64632;BME280;58358;50.936;0.246;2024-03-23T02:52:20;100884.19;;;4.16;100.00
64632;BME280;58358;50.936;0.246;2024-03-23T02:54:45;100878.72;;;4.14;100.00
64632;BME280;58358;50.936;0.246;2024-03-23T02:57:11;100877.23;;;3.96;100.00
64632;BME280;58358;50.936;0.246;2024-03-23T02:59:36;100878.48;;;3.53;100.00
64632;BME280;58358;50.936;0.246;2024-03-23T03:02:02;100876.16;;;4.02;100.00
64632;BME280;58358;50.936;0.246;2024-03-23T03:04:27;100878.48;;;3.65;100.00
64632;BME280;58358;50.936;0.246;2024-03-23T03:06:53;100877.54;;;2.77;100.00
64632;BME280;58358;50.936;0.246;2024-03-23T03:09:18;100875.67;;;2.45;100.00
64632;BME280;58358;50.936;0.246;2024-03-23T03:11:44;100873.44;;;2.83;100.00
64632;BME280;58358;50.936;0.246;2024-03-23T03:14:09;100868.66;;;2.66;100.00
64632;BME280;58358;50.936;0.246;2024-03-23T03:16:35;100873.74;;;2.40;100.00
64632;BME280;58358;50.936;0.246;2024-03-23T03:19:00;100876.03;;;1.69;100.00
64632;BME280;58358;50.936;0.246;2024-03-23T03:21:25;100873.90;;;2.85;100.00
64632;BME280;58358;50.936;0.246;2024-03-23T03:23:50;100877.78;;;3.08;100.00
64632;BME280;58358;50.936;0.246;2024-03-23T03:26:16;100874.92;;;2.76;100.00
64632;BME280;58358;50.936;0.246;2024-03-23T03:28:43;100874.90;;;1.55;100.00
64632;BME280;58358;50.936;0.246;2024-03-23T03:31:07;100875.76;;;2.83;100.00
64632;BME280;58358;50.936;0.246;2024-03-23T03:33:32;100871.66;;;2.50;100.00
64632;BME280;58358;50.936;0.246;2024-03-23T03:35:59;100871.42;;;1.54;100.00
64632;BME280;58358;50.936;0.246;2024-03-23T03:38:23;100867.85;;;2.20;100.00
64632;BME280;58358;50.936;0.246;2024-03-23T03:40:49;100869.97;;;2.39;100.00
64632;BME280;58358;50.936;0.246;2024-03-23T03:43:14;100868.69;;;2.42;100.00
64632;BME280;58358;50.936;0.246;2024-03-23T03:45:40;100865.43;;;4.01;100.00
64632;BME280;58358;50.936;0.246;2024-03-23T03:48:06;100868.08;;;2.71;100.00
64632;BME280;58358;50.936;0.246;2024-03-23T03:50:31;100860.32;;;2.46;100.00
64632;BME280;58358;50.936;0.246;2024-03-23T03:52:56;100860.01;;;2.41;100.00
64632;BME280;58358;50.936;0.246;2024-03-23T03:55:22;100862.03;;;3.19;100.00
64632;BME280;58358;50.936;0.246;2024-03-23T03:57:47;100863.29;;;2.37;100.00
64632;BME280;58358;50.936;0.246;2024-03-23T04:00:13;100860.90;;;2.13;100.00
64632;BME280;58358;50.936;0.246;2024-03-23T04:02:38;100863.79;;;0.63;100.00
64632;BME280;58358;50.936;0.246;2024-03-23T04:05:04;100862.27;;;1.36;100.00
64632;BME280;58358;50.936;0.246;2024-03-23T04:07:29;100860.99;;;1.81;100.00
64632;BME280;58358;50.936;0.246;2024-03-23T04:09:55;100861.84;;;2.06;100.00
64632;BME280;58358;50.936;0.246;2024-03-23T04:12:20;100864.00;;;3.35;100.00
64632;BME280;58358;50.936;0.246;2024-03-23T04:14:46;100862.51;;;2.85;100.00
64632;BME280;58358;50.936;0.246;2024-03-23T04:17:11;100864.18;;;1.63;100.00
64632;BME280;58358;50.936;0.246;2024-03-23T04:19:37;100863.75;;;2.82;100.00
64632;BME280;58358;50.936;0.246;2024-03-23T04:22:02;100865.26;;;2.38;100.00
64632;BME280;58358;50.936;0.246;2024-03-23T04:24:28;100860.60;;;2.43;100.00
64632;BME280;58358;50.936;0.246;2024-03-23T04:26:53;100856.77;;;2.07;100.00
64632;BME280;58358;50.936;0.246;2024-03-23T04:29:18;100860.56;;;1.82;100.00
64632;BME280;58358;50.936;0.246;2024-03-23T04:31:44;100863.12;;;2.00;100.00
64632;BME280;58358;50.936;0.246;2024-03-23T04:34:10;100862.84;;;2.45;100.00
64632;BME280;58358;50.936;0.246;2024-03-23T04:36:35;100859.27;;;2.14;100.00
64632;BME280;58358;50.936;0.246;2024-03-23T04:39:00;100856.51;;;1.20;100.00
64632;BME280;58358;50.936;0.246;2024-03-23T04:41:25;100858.81;;;1.00;100.00
64632;BME280;58358;50.936;0.246;2024-03-23T04:43:50;100854.48;;;0.90;100.00
64632;BME280;58358;50.936;0.246;2024-03-23T04:46:15;100858.53;;;0.80;100.00
64632;BME280;58358;50.936;0.246;2024-03-23T04:48:40;100861.00;;;1.33;100.00
64632;BME280;58358;50.936;0.246;2024-03-23T04:51:05;100866.44;;;1.06;100.00
64632;BME280;58358;50.936;0.246;2024-03-23T04:53:30;100859.54;;;2.51;100.00
64632;BME280;58358;50.936;0.246;2024-03-23T04:55:55;100866.19;;;2.23;100.00
64632;BME280;58358;50.936;0.246;2024-03-23T04:58:20;100866.34;;;1.04;100.00
64632;BME280;58358;50.936;0.246;2024-03-23T05:00:46;100872.88;;;1.23;100.00
64632;BME280;58358;50.936;0.246;2024-03-23T05:03:11;100873.08;;;1.26;100.00
64632;BME280;58358;50.936;0.246;2024-03-23T05:05:37;100871.51;;;1.66;100.00
64632;BME280;58358;50.936;0.246;2024-03-23T05:08:02;100867.83;;;1.79;100.00
64632;BME280;58358;50.936;0.246;2024-03-23T05:10:28;100868.91;;;0.86;100.00
64632;BME280;58358;50.936;0.246;2024-03-23T05:12:53;100869.40;;;2.08;100.00
64632;BME280;58358;50.936;0.246;2024-03-23T05:15:19;100866.24;;;2.69;100.00
64632;BME280;58358;50.936;0.246;2024-03-23T05:17:44;100860.67;;;1.41;100.00
64632;BME280;58358;50.936;0.246;2024-03-23T05:20:09;100864.28;;;0.97;100.00
64632;BME280;58358;50.936;0.246;2024-03-23T05:22:34;100864.61;;;0.90;100.00
64632;BME280;58358;50.936;0.246;2024-03-23T05:24:59;100861.00;;;1.69;100.00
64632;BME280;58358;50.936;0.246;2024-03-23T05:27:24;100861.79;;;2.95;100.00
64632;BME280;58358;50.936;0.246;2024-03-23T05:29:50;100857.55;;;2.34;100.00
64632;BME280;58358;50.936;0.246;2024-03-23T05:32:16;100866.50;;;1.96;100.00
64632;BME280;58358;50.936;0.246;2024-03-23T05:34:41;100869.71;;;1.49;100.00
64632;BME280;58358;50.936;0.246;2024-03-23T05:37:06;100866.94;;;1.79;100.00
64632;BME280;58358;50.936;0.246;2024-03-23T05:39:31;100863.09;;;1.88;100.00
64632;BME280;58358;50.936;0.246;2024-03-23T05:41:56;100863.56;;;1.88;100.00
64632;BME280;58358;50.936;0.246;2024-03-23T05:44:22;100863.60;;;2.21;100.00
64632;BME280;58358;50.936;0.246;2024-03-23T05:46:47;100865.71;;;2.57;100.00
64632;BME280;58358;50.936;0.246;2024-03-23T05:49:12;100869.36;;;2.84;100.00
64632;BME280;58358;50.936;0.246;2024-03-23T05:51:37;100870.90;;;1.29;100.00
64632;BME280;58358;50.936;0.246;2024-03-23T05:54:02;100872.56;;;1.36;100.00
64632;BME280;58358;50.936;0.246;2024-03-23T05:56:27;100869.55;;;1.95;100.00
64632;BME280;58358;50.936;0.246;2024-03-23T05:58:52;100866.03;;;1.20;100.00
64632;BME280;58358;50.936;0.246;2024-03-23T06:01:17;100866.95;;;2.30;100.00
64632;BME280;58358;50.936;0.246;2024-03-23T06:03:42;100863.12;;;1.81;100.00
64632;BME280;58358;50.936;0.246;2024-03-23T06:06:07;100863.23;;;1.59;100.00
64632;BME280;58358;50.936;0.246;2024-03-23T06:08:32;100860.64;;;2.45;100.00
64632;BME280;58358;50.936;0.246;2024-03-23T06:10:57;100857.47;;;2.84;100.00
64632;BME280;58358;50.936;0.246;2024-03-23T06:13:23;100860.89;;;3.25;100.00
64632;BME280;58358;50.936;0.246;2024-03-23T06:15:49;100862.26;;;3.61;100.00
64632;BME280;58358;50.936;0.246;2024-03-23T06:18:14;100865.61;;;2.94;100.00
64632;BME280;58358;50.936;0.246;2024-03-23T06:20:40;100858.46;;;2.07;100.00
64632;BME280;58358;50.936;0.246;2024-03-23T06:23:05;100856.63;;;1.93;100.00
64632;BME280;58358;50.936;0.246;2024-03-23T06:25:31;100857.19;;;2.11;100.00
64632;BME280;58358;50.936;0.246;2024-03-23T06:27:56;100856.66;;;1.24;100.00
64632;BME280;58358;50.936;0.246;2024-03-23T06:30:21;100860.83;;;1.45;100.00
64632;BME280;58358;50.936;0.246;2024-03-23T06:32:46;100862.01;;;1.02;100.00
64632;BME280;58358;50.936;0.246;2024-03-23T06:35:11;100854.12;;;2.39;100.00
64632;BME280;58358;50.936;0.246;2024-03-23T06:37:36;100853.56;;;1.71;100.00
64632;BME280;58358;50.936;0.246;2024-03-23T06:40:02;100846.84;;;2.07;100.00
64632;BME280;58358;50.936;0.246;2024-03-23T06:42:26;100855.86;;;2.91;100.00
64632;BME280;58358;50.936;0.246;2024-03-23T06:44:52;100848.86;;;2.14;100.00
64632;BME280;58358;50.936;0.246;2024-03-23T06:47:17;100852.91;;;2.77;100.00
64632;BME280;58358;50.936;0.246;2024-03-23T06:49:44;100854.61;;;2.28;100.00
64632;BME280;58358;50.936;0.246;2024-03-23T06:52:08;100855.70;;;1.36;100.00
64632;BME280;58358;50.936;0.246;2024-03-23T06:54:34;100846.82;;;2.44;100.00
64632;BME280;58358;50.936;0.246;2024-03-23T06:57:00;100848.10;;;3.18;100.00
64632;BME280;58358;50.936;0.246;2024-03-23T06:59:26;100847.26;;;2.87;100.00
64632;BME280;58358;50.936;0.246;2024-03-23T07:01:51;100844.79;;;2.04;100.00
64632;BME280;58358;50.936;0.246;2024-03-23T07:04:16;100848.63;;;2.21;100.00
64632;BME280;58358;50.936;0.246;2024-03-23T07:06:43;100850.65;;;1.70;100.00
64632;BME280;58358;50.936;0.246;2024-03-23T07:09:07;100856.87;;;1.80;100.00
64632;BME280;58358;50.936;0.246;2024-03-23T07:11:32;100857.35;;;1.54;100.00
64632;BME280;58358;50.936;0.246;2024-03-23T07:13:58;100854.04;;;1.99;100.00
64632;BME280;58358;50.936;0.246;2024-03-23T07:16:24;100852.24;;;2.59;100.00
64632;BME280;58358;50.936;0.246;2024-03-23T07:18:50;100850.21;;;2.36;100.00
64632;BME280;58358;50.936;0.246;2024-03-23T07:21:15;100851.03;;;2.10;100.00
64632;BME280;58358;50.936;0.246;2024-03-23T07:23:42;100860.09;;;2.04;100.00
64632;BME280;58358;50.936;0.246;2024-03-23T07:26:06;100854.52;;;2.00;100.00
64632;BME280;58358;50.936;0.246;2024-03-23T07:28:31;100857.13;;;1.51;100.00
64632;BME280;58358;50.936;0.246;2024-03-23T07:31:04;100859.48;;;1.61;100.00
64632;BME280;58358;50.936;0.246;2024-03-23T07:33:22;100851.11;;;2.06;100.00
64632;BME280;58358;50.936;0.246;2024-03-23T07:35:47;100847.45;;;0.89;100.00
64632;BME280;58358;50.936;0.246;2024-03-23T07:38:13;100846.18;;;1.95;100.00
64632;BME280;58358;50.936;0.246;2024-03-23T07:40:38;100834.22;;;2.02;100.00
64632;BME280;58358;50.936;0.246;2024-03-23T07:43:04;100832.91;;;2.14;100.00
64632;BME280;58358;50.936;0.246;2024-03-23T07:45:29;100835.09;;;1.91;100.00
64632;BME280;58358;50.936;0.246;2024-03-23T07:47:55;100829.80;;;2.14;100.00
64632;BME280;58358;50.936;0.246;2024-03-23T07:50:20;100830.35;;;2.60;100.00
64632;BME280;58358;50.936;0.246;2024-03-23T07:52:45;100825.70;;;2.34;100.00
64632;BME280;58358;50.936;0.246;2024-03-23T07:55:11;100836.45;;;0.81;100.00
64632;BME280;58358;50.936;0.246;2024-03-23T07:57:36;100833.03;;;2.84;100.00
64632;BME280;58358;50.936;0.246;2024-03-23T08:00:02;100829.69;;;1.86;100.00
64632;BME280;58358;50.936;0.246;2024-03-23T08:02:27;100829.25;;;2.38;100.00
64632;BME280;58358;50.936;0.246;2024-03-23T08:04:53;100829.59;;;2.27;100.00
64632;BME280;58358;50.936;0.246;2024-03-23T08:07:19;100820.74;;;2.51;100.00
64632;BME280;58358;50.936;0.246;2024-03-23T08:09:45;100823.02;;;2.60;100.00
64632;BME280;58358;50.936;0.246;2024-03-23T08:12:10;100815.50;;;2.96;100.00
64632;BME280;58358;50.936;0.246;2024-03-23T08:14:35;100817.69;;;2.12;100.00
64632;BME280;58358;50.936;0.246;2024-03-23T08:17:00;100822.50;;;2.52;100.00
64632;BME280;58358;50.936;0.246;2024-03-23T08:19:26;100815.46;;;2.09;100.00
64632;BME280;58358;50.936;0.246;2024-03-23T08:21:51;100809.01;;;2.27;100.00
64632;BME280;58358;50.936;0.246;2024-03-23T08:24:17;100803.60;;;2.91;100.00
64632;BME280;58358;50.936;0.246;2024-03-23T08:26:42;100806.20;;;2.02;100.00
64632;BME280;58358;50.936;0.246;2024-03-23T08:29:07;100806.72;;;2.13;100.00
64632;BME280;58358;50.936;0.246;2024-03-23T08:31:33;100815.20;;;2.60;100.00
64632;BME280;58358;50.936;0.246;2024-03-23T08:33:58;100806.16;;;2.97;100.00
64632;BME280;58358;50.936;0.246;2024-03-23T08:36:24;100808.82;;;2.73;100.00
64632;BME280;58358;50.936;0.246;2024-03-23T08:38:49;100811.79;;;2.88;100.00
64632;BME280;58358;50.936;0.246;2024-03-23T08:41:14;100805.99;;;2.76;100.00
64632;BME280;58358;50.936;0.246;2024-03-23T08:43:41;100820.36;;;3.62;100.00
64632;BME280;58358;50.936;0.246;2024-03-23T08:46:07;100813.07;;;3.23;100.00
64632;BME280;58358;50.936;0.246;2024-03-23T08:48:32;100810.23;;;4.24;100.00
64632;BME280;58358;50.936;0.246;2024-03-23T08:51:00;100815.37;;;3.00;100.00
64632;BME280;58358;50.936;0.246;2024-03-23T08:53:23;100820.51;;;2.78;100.00
64632;BME280;58358;50.936;0.246;2024-03-23T08:55:54;100819.09;;;3.28;100.00
64632;BME280;58358;50.936;0.246;2024-03-23T08:58:15;100803.68;;;3.44;100.00
64632;BME280;58358;50.936;0.246;2024-03-23T09:00:41;100807.68;;;3.46;100.00
64632;BME280;58358;50.936;0.246;2024-03-23T09:03:07;100809.26;;;3.68;100.00
64632;BME280;58358;50.936;0.246;2024-03-23T09:05:32;100805.32;;;3.77;100.00
64632;BME280;58358;50.936;0.246;2024-03-23T09:07:58;100811.55;;;4.52;100.00
64632;BME280;58358;50.936;0.246;2024-03-23T09:10:24;100813.27;;;5.00;100.00
64632;BME280;58358;50.936;0.246;2024-03-23T09:12:50;100813.54;;;3.45;100.00
64632;BME280;58358;50.936;0.246;2024-03-23T09:15:15;100803.22;;;3.22;100.00
64632;BME280;58358;50.936;0.246;2024-03-23T09:17:41;100802.88;;;3.73;100.00
64632;BME280;58358;50.936;0.246;2024-03-23T09:20:08;100817.06;;;3.33;100.00
64632;BME280;58358;50.936;0.246;2024-03-23T09:22:33;100805.45;;;3.58;100.00
64632;BME280;58358;50.936;0.246;2024-03-23T09:24:59;100793.78;;;4.46;100.00
64632;BME280;58358;50.936;0.246;2024-03-23T09:27:24;100791.56;;;4.18;100.00
64632;BME280;58358;50.936;0.246;2024-03-23T09:29:49;100800.44;;;3.48;100.00
64632;BME280;58358;50.936;0.246;2024-03-23T09:32:15;100808.21;;;3.79;100.00
64632;BME280;58358;50.936;0.246;2024-03-23T09:34:41;100799.71;;;4.30;100.00
64632;BME280;58358;50.936;0.246;2024-03-23T09:37:06;100790.92;;;4.47;100.00
64632;BME280;58358;50.936;0.246;2024-03-23T09:39:32;100796.89;;;4.13;100.00
64632;BME280;58358;50.936;0.246;2024-03-23T09:41:58;100788.20;;;4.53;100.00
64632;BME280;58358;50.936;0.246;2024-03-23T09:44:24;100773.10;;;4.28;100.00
64632;BME280;58358;50.936;0.246;2024-03-23T09:46:50;100782.96;;;4.05;100.00
64632;BME280;58358;50.936;0.246;2024-03-23T09:49:15;100782.00;;;4.32;100.00
64632;BME280;58358;50.936;0.246;2024-03-23T09:51:41;100781.73;;;4.03;100.00
64632;BME280;58358;50.936;0.246;2024-03-23T09:54:06;100782.06;;;4.47;100.00
64632;BME280;58358;50.936;0.246;2024-03-23T09:56:31;100778.82;;;4.95;100.00
64632;BME280;58358;50.936;0.246;2024-03-23T09:59:01;100775.41;;;5.12;100.00
64632;BME280;58358;50.936;0.246;2024-03-23T10:01:23;100769.96;;;5.37;100.00
64632;BME280;58358;50.936;0.246;2024-03-23T10:03:48;100763.07;;;5.47;100.00
64632;BME280;58358;50.936;0.246;2024-03-23T10:06:14;100775.01;;;5.24;100.00
64632;BME280;58358;50.936;0.246;2024-03-23T10:08:39;100771.92;;;4.41;100.00
64632;BME280;58358;50.936;0.246;2024-03-23T10:11:12;100758.91;;;4.68;100.00
64632;BME280;58358;50.936;0.246;2024-03-23T10:13:30;100749.42;;;4.57;100.00
64632;BME280;58358;50.936;0.246;2024-03-23T10:15:56;100763.39;;;5.72;100.00
64632;BME280;58358;50.936;0.246;2024-03-23T10:18:21;100758.98;;;4.66;100.00
64632;BME280;58358;50.936;0.246;2024-03-23T10:20:50;100754.86;;;4.72;100.00
64632;BME280;58358;50.936;0.246;2024-03-23T10:23:16;100745.79;;;5.27;100.00
64632;BME280;58358;50.936;0.246;2024-03-23T10:25:37;100744.20;;;5.64;100.00
64632;BME280;58358;50.936;0.246;2024-03-23T10:28:03;100737.88;;;6.53;100.00
64632;BME280;58358;50.936;0.246;2024-03-23T10:30:29;100739.10;;;5.67;100.00
64632;BME280;58358;50.936;0.246;2024-03-23T10:35:20;100729.97;;;4.85;100.00
64632;BME280;58358;50.936;0.246;2024-03-23T10:37:46;100724.19;;;5.87;100.00
64632;BME280;58358;50.936;0.246;2024-03-23T10:40:12;100726.19;;;5.85;100.00
64632;BME280;58358;50.936;0.246;2024-03-23T10:42:37;100723.28;;;6.45;100.00
64632;BME280;58358;50.936;0.246;2024-03-23T10:45:04;100722.27;;;5.49;100.00
64632;BME280;58358;50.936;0.246;2024-03-23T10:47:28;100716.24;;;5.59;100.00
64632;BME280;58358;50.936;0.246;2024-03-23T10:49:54;100719.52;;;5.16;100.00
64632;BME280;58358;50.936;0.246;2024-03-23T10:52:20;100714.00;;;5.55;100.00
64632;BME280;58358;50.936;0.246;2024-03-23T10:54:47;100724.96;;;5.71;100.00
64632;BME280;58358;50.936;0.246;2024-03-23T10:57:16;100723.52;;;6.62;100.00
64632;BME280;58358;50.936;0.246;2024-03-23T10:59:37;100718.57;;;6.01;100.00
64632;BME280;58358;50.936;0.246;2024-03-23T11:02:02;100704.46;;;5.93;100.00
64632;BME280;58358;50.936;0.246;2024-03-23T11:04:30;100711.64;;;6.15;100.00
64632;BME280;58358;50.936;0.246;2024-03-23T11:06:54;100693.27;;;6.29;100.00
64632;BME280;58358;50.936;0.246;2024-03-23T11:11:47;100693.12;;;5.52;100.00
64632;BME280;58358;50.936;0.246;2024-03-23T11:16:37;100685.04;;;6.28;100.00
64632;BME280;58358;50.936;0.246;2024-03-23T11:23:54;100680.68;;;6.29;99.76
64632;BME280;58358;50.936;0.246;2024-03-23T11:26:21;100666.27;;;6.05;100.00
64632;BME280;58358;50.936;0.246;2024-03-23T11:28:46;100668.82;;;5.95;100.00
64632;BME280;58358;50.936;0.246;2024-03-23T11:31:11;100671.07;;;6.09;100.00
64632;BME280;58358;50.936;0.246;2024-03-23T11:33:37;100674.87;;;6.25;100.00
64632;BME280;58358;50.936;0.246;2024-03-23T11:36:04;100664.07;;;6.30;100.00
64632;BME280;58358;50.936;0.246;2024-03-23T11:38:29;100659.20;;;6.98;100.00
64632;BME280;58358;50.936;0.246;2024-03-23T11:40:54;100650.33;;;6.17;100.00
64632;BME280;58358;50.936;0.246;2024-03-23T11:43:20;100655.76;;;6.07;100.00
64632;BME280;58358;50.936;0.246;2024-03-23T11:45:46;100646.15;;;5.97;100.00
64632;BME280;58358;50.936;0.246;2024-03-23T11:48:13;100648.27;;;6.14;100.00
64632;BME280;58358;50.936;0.246;2024-03-23T11:50:39;100634.24;;;5.51;100.00
64632;BME280;58358;50.936;0.246;2024-03-23T11:53:12;100634.66;;;6.18;100.00
64632;BME280;58358;50.936;0.246;2024-03-23T11:55:29;100635.52;;;6.48;100.00
64632;BME280;58358;50.936;0.246;2024-03-23T11:57:54;100617.99;;;6.87;100.00
64632;BME280;58358;50.936;0.246;2024-03-23T12:00:21;100617.82;;;7.06;100.00
64632;BME280;58358;50.936;0.246;2024-03-23T12:02:46;100616.83;;;6.40;100.00
64632;BME280;58358;50.936;0.246;2024-03-23T12:05:15;100605.00;;;6.77;100.00
64632;BME280;58358;50.936;0.246;2024-03-23T12:07:37;100605.95;;;7.55;100.00
64632;BME280;58358;50.936;0.246;2024-03-23T12:10:04;100608.73;;;6.67;98.77
64632;BME280;58358;50.936;0.246;2024-03-23T12:12:29;100591.63;;;6.97;99.52
64632;BME280;58358;50.936;0.246;2024-03-23T12:15:01;100595.72;;;6.97;99.68
64632;BME280;58358;50.936;0.246;2024-03-23T12:17:21;100583.82;;;7.72;94.06
64632;BME280;58358;50.936;0.246;2024-03-23T12:19:46;100584.02;;;7.69;91.20
64632;BME280;58358;50.936;0.246;2024-03-23T12:22:12;100572.41;;;7.58;89.32
64632;BME280;58358;50.936;0.246;2024-03-23T12:24:37;100564.01;;;6.49;92.39
64632;BME280;58358;50.936;0.246;2024-03-23T12:27:04;100563.54;;;6.90;99.71
64632;BME280;58358;50.936;0.246;2024-03-23T12:29:29;100563.64;;;6.83;100.00
64632;BME280;58358;50.936;0.246;2024-03-23T12:31:58;100561.94;;;6.47;100.00
64632;BME280;58358;50.936;0.246;2024-03-23T12:34:20;100561.50;;;7.00;100.00
64632;BME280;58358;50.936;0.246;2024-03-23T12:36:46;100562.85;;;7.00;100.00
64632;BME280;58358;50.936;0.246;2024-03-23T12:39:12;100544.00;;;6.71;100.00
64632;BME280;58358;50.936;0.246;2024-03-23T12:41:38;100548.49;;;7.30;100.00
64632;BME280;58358;50.936;0.246;2024-03-23T12:44:03;100545.00;;;7.23;100.00
64632;BME280;58358;50.936;0.246;2024-03-23T12:46:29;100542.68;;;6.33;100.00
64632;BME280;58358;50.936;0.246;2024-03-23T12:48:56;100543.47;;;6.37;100.00
64632;BME280;58358;50.936;0.246;2024-03-23T12:51:20;100539.53;;;6.71;100.00
64632;BME280;58358;50.936;0.246;2024-03-23T12:53:46;100534.40;;;7.38;100.00
64632;BME280;58358;50.936;0.246;2024-03-23T12:56:13;100537.15;;;7.26;100.00
64632;BME280;58358;50.936;0.246;2024-03-23T12:58:38;100545.25;;;6.56;100.00
64632;BME280;58358;50.936;0.246;2024-03-23T13:01:03;100548.75;;;5.89;100.00
64632;BME280;58358;50.936;0.246;2024-03-23T13:03:29;100560.83;;;6.12;100.00
64632;BME280;58358;50.936;0.246;2024-03-23T13:05:55;100556.00;;;5.22;100.00
64632;BME280;58358;50.936;0.246;2024-03-23T13:08:21;100565.01;;;5.73;100.00
64632;BME280;58358;50.936;0.246;2024-03-23T13:10:46;100562.34;;;5.78;100.00
64632;BME280;58358;50.936;0.246;2024-03-23T13:13:12;100573.63;;;6.01;100.00
64632;BME280;58358;50.936;0.246;2024-03-23T13:15:38;100581.18;;;6.02;100.00
64632;BME280;58358;50.936;0.246;2024-03-23T13:18:04;100563.70;;;5.67;100.00
64632;BME280;58358;50.936;0.246;2024-03-23T13:20:29;100563.90;;;5.71;100.00
64632;BME280;58358;50.936;0.246;2024-03-23T13:22:55;100549.86;;;5.30;100.00
64632;BME280;58358;50.936;0.246;2024-03-23T13:25:21;100547.20;;;5.58;100.00
64632;BME280;58358;50.936;0.246;2024-03-23T13:27:46;100534.06;;;6.24;100.00
64632;BME280;58358;50.936;0.246;2024-03-23T13:30:13;100523.60;;;6.61;100.00
64632;BME280;58358;50.936;0.246;2024-03-23T13:32:38;100512.70;;;6.38;100.00
64632;BME280;58358;50.936;0.246;2024-03-23T13:35:04;100515.82;;;6.68;100.00
64632;BME280;58358;50.936;0.246;2024-03-23T13:37:29;100515.28;;;6.74;100.00
64632;BME280;58358;50.936;0.246;2024-03-23T13:39:55;100513.99;;;6.55;100.00
64632;BME280;58358;50.936;0.246;2024-03-23T13:42:20;100513.77;;;5.36;100.00
64632;BME280;58358;50.936;0.246;2024-03-23T13:44:46;100503.74;;;5.87;100.00